createdAt,value
2016-08-02T00:00:09.654Z,53.7
2016-08-02T00:00:20.895Z,53.7
2016-08-02T00:00:32.141Z,53.7
2016-08-02T00:00:43.383Z,53.7
2016-08-02T00:00:54.626Z,53.8
2016-08-02T00:01:05.870Z,53.7
2016-08-02T00:01:17.109Z,53.7
2016-08-02T00:01:28.358Z,53.8
2016-08-02T00:01:39.607Z,53.7
2016-08-02T00:01:50.849Z,53.7
2016-08-02T00:02:02.095Z,53.8
2016-08-02T00:02:13.334Z,53.6
2016-08-02T00:02:24.574Z,53.9
2016-08-02T00:02:35.082Z,53.6
2016-08-02T00:02:46.326Z,53.8
2016-08-02T00:02:57.572Z,53.7
2016-08-02T00:03:08.815Z,53.8
2016-08-02T00:03:20.061Z,53.6
2016-08-02T00:03:31.299Z,53.7
2016-08-02T00:03:42.545Z,53.7
2016-08-02T00:03:53.796Z,53.7
2016-08-02T00:04:04.318Z,53.8
2016-08-02T00:04:15.563Z,53.6
2016-08-02T00:04:26.806Z,53.7
2016-08-02T00:04:38.049Z,53.7
2016-08-02T00:04:49.288Z,53.8
2016-08-02T00:05:00.524Z,53.7
2016-08-02T00:05:11.045Z,53.7
2016-08-02T00:05:22.284Z,53.6
2016-08-02T00:05:33.531Z,53.8
2016-08-02T00:05:44.774Z,53.8
2016-08-02T00:05:56.016Z,53.6
2016-08-02T00:06:07.262Z,53.7
2016-08-02T00:06:17.767Z,53.6
2016-08-02T00:06:28.296Z,53.7
2016-08-02T00:06:39.536Z,53.7
2016-08-02T00:06:50.778Z,53.8
2016-08-02T00:07:02.020Z,53.8
2016-08-02T00:07:13.259Z,53.7
2016-08-02T00:07:24.512Z,53.8
2016-08-02T00:07:35.018Z,53.7
2016-08-02T00:07:45.525Z,53.7
2016-08-02T00:07:56.768Z,53.7
2016-08-02T00:08:08.006Z,53.6
2016-08-02T00:08:19.249Z,53.7
2016-08-02T00:08:41.893Z,53.7
2016-08-02T00:08:53.133Z,53.7
2016-08-02T00:09:04.371Z,53.6
2016-08-02T00:09:15.614Z,53.6
2016-08-02T00:09:26.853Z,53.6
2016-08-02T00:09:38.095Z,53.6
2016-08-02T00:09:49.339Z,53.7
2016-08-02T00:10:00.581Z,53.7
2016-08-02T00:10:11.823Z,53.7
2016-08-02T00:10:22.336Z,53.7
2016-08-02T00:10:33.585Z,53.7
2016-08-02T00:10:44.826Z,53.5
2016-08-02T00:10:56.061Z,53.5
2016-08-02T00:11:07.303Z,53.6
2016-08-02T00:11:18.550Z,53.6
2016-08-02T00:11:29.791Z,53.7
2016-08-02T00:11:41.037Z,53.6
2016-08-02T00:11:52.277Z,53.8
2016-08-02T00:12:03.519Z,53.6
2016-08-02T00:12:14.767Z,53.6
2016-08-02T00:12:26.016Z,53.5
2016-08-02T00:12:37.260Z,53.5
2016-08-02T00:12:48.505Z,53.7
2016-08-02T00:12:59.009Z,53.6
2016-08-02T00:13:08.787Z,53.6
2016-08-02T00:13:20.040Z,53.7
2016-08-02T00:13:31.277Z,53.6
2016-08-02T00:13:42.517Z,53.6
2016-08-02T00:13:53.766Z,53.6
2016-08-02T00:14:05.002Z,53.7
2016-08-02T00:14:16.248Z,53.7
2016-08-02T00:14:27.490Z,53.5
2016-08-02T00:14:38.729Z,53.6
2016-08-02T00:14:49.976Z,53.7
2016-08-02T00:15:01.219Z,53.6
2016-08-02T00:15:11.737Z,53.6
2016-08-02T00:15:22.974Z,53.6
2016-08-02T00:15:34.221Z,53.5
2016-08-02T00:15:45.457Z,53.5
2016-08-02T00:15:56.702Z,53.6
2016-08-02T00:16:07.940Z,53.5
2016-08-02T00:16:19.180Z,53.5
2016-08-02T00:16:30.418Z,53.5
2016-08-02T00:16:41.663Z,53.7
2016-08-02T00:16:52.907Z,53.5
2016-08-02T00:17:04.150Z,53.5
2016-08-02T00:17:14.663Z,53.5
2016-08-02T00:17:25.907Z,53.5
2016-08-02T00:17:37.152Z,53.4
2016-08-02T00:17:47.658Z,53.5
2016-08-02T00:17:58.898Z,53.6
2016-08-02T00:18:10.150Z,53.4
2016-08-02T00:18:21.406Z,53.6
2016-08-02T00:18:31.189Z,53.6
2016-08-02T00:18:42.430Z,53.6
2016-08-02T00:18:53.679Z,53.5
2016-08-02T00:19:04.922Z,53.6
2016-08-02T00:19:16.164Z,53.6
2016-08-02T00:19:27.405Z,53.6
2016-08-02T00:19:38.647Z,53.6
2016-08-02T00:20:01.565Z,53.6
2016-08-02T00:20:12.804Z,53.6
2016-08-02T00:20:24.045Z,53.5
2016-08-02T00:20:35.283Z,53.5
2016-08-02T00:20:46.528Z,53.6
2016-08-02T00:20:57.770Z,53.6
2016-08-02T00:21:09.010Z,53.5
2016-08-02T00:21:20.255Z,53.7
2016-08-02T00:21:31.494Z,53.7
2016-08-02T00:21:42.733Z,53.6
2016-08-02T00:21:53.978Z,53.7
2016-08-02T00:22:05.217Z,53.5
2016-08-02T00:22:16.457Z,53.5
2016-08-02T00:22:27.706Z,53.6
2016-08-02T00:22:38.224Z,53.4
2016-08-02T00:22:49.462Z,53.7
2016-08-02T00:22:59.981Z,53.6
2016-08-02T00:23:11.225Z,53.7
2016-08-02T00:23:22.469Z,53.5
2016-08-02T00:23:45.681Z,53.7
2016-08-02T00:23:56.927Z,53.6
2016-08-02T00:24:08.169Z,53.6
2016-08-02T00:24:18.682Z,53.6
2016-08-02T00:24:29.199Z,53.6
2016-08-02T00:24:40.448Z,53.6
2016-08-02T00:24:51.695Z,53.4
2016-08-02T00:25:02.935Z,53.7
2016-08-02T00:25:14.177Z,53.4
2016-08-02T00:25:25.422Z,53.5
2016-08-02T00:25:36.661Z,53.4
2016-08-02T00:25:47.175Z,53.6
2016-08-02T00:25:58.415Z,53.4
2016-08-02T00:26:08.932Z,53.6
2016-08-02T00:26:20.172Z,53.6
2016-08-02T00:26:31.414Z,53.5
2016-08-02T00:26:41.929Z,53.6
2016-08-02T00:26:53.169Z,53.4
2016-08-02T00:27:04.416Z,53.5
2016-08-02T00:27:14.925Z,53.4
2016-08-02T00:27:26.168Z,53.4
2016-08-02T00:27:37.409Z,53.5
2016-08-02T00:27:48.650Z,53.5
2016-08-02T00:27:59.894Z,53.5
2016-08-02T00:28:11.143Z,53.4
2016-08-02T00:28:22.391Z,53.7
2016-08-02T00:28:32.899Z,53.5
2016-08-02T00:28:44.149Z,53.5
2016-08-02T00:28:54.657Z,53.4
2016-08-02T00:29:05.901Z,53.4
2016-08-02T00:29:17.144Z,53.5
2016-08-02T00:29:28.392Z,53.4
2016-08-02T00:29:38.180Z,53.4
2016-08-02T00:29:49.429Z,53.4
2016-08-02T00:30:00.673Z,53.4
2016-08-02T00:30:11.922Z,53.4
2016-08-02T00:30:23.155Z,53.4
2016-08-02T00:30:34.395Z,53.4
2016-08-02T00:30:44.903Z,53.5
2016-08-02T00:30:56.141Z,53.4
2016-08-02T00:31:07.378Z,53.4
2016-08-02T00:31:18.624Z,53.4
2016-08-02T00:31:29.868Z,53.4
2016-08-02T00:31:41.119Z,53.4
2016-08-02T00:31:52.357Z,53.4
2016-08-02T00:32:03.601Z,53.6
2016-08-02T00:32:14.838Z,53.4
2016-08-02T00:32:25.358Z,53.4
2016-08-02T00:32:36.595Z,53.4
2016-08-02T00:32:47.844Z,53.6
2016-08-02T00:32:59.083Z,53.5
2016-08-02T00:33:10.333Z,53.5
2016-08-02T00:33:21.571Z,53.4
2016-08-02T00:33:32.091Z,53.6
2016-08-02T00:33:43.345Z,53.6
2016-08-02T00:33:54.587Z,53.4
2016-08-02T00:34:05.833Z,53.6
2016-08-02T00:34:17.075Z,53.5
2016-08-02T00:34:28.312Z,53.5
2016-08-02T00:34:38.825Z,53.4
2016-08-02T00:34:50.070Z,53.5
2016-08-02T00:35:01.312Z,53.5
2016-08-02T00:35:12.550Z,53.5
2016-08-02T00:35:23.797Z,53.5
2016-08-02T00:35:35.044Z,53.3
2016-08-02T00:35:45.551Z,53.3
2016-08-02T00:35:56.795Z,53.5
2016-08-02T00:36:08.034Z,53.3
2016-08-02T00:36:19.275Z,53.4
2016-08-02T00:36:30.519Z,53.3
2016-08-02T00:36:41.757Z,53.3
2016-08-02T00:36:52.998Z,53.5
2016-08-02T00:37:04.239Z,53.3
2016-08-02T00:37:15.482Z,53.5
2016-08-02T00:37:26.726Z,53.3
2016-08-02T00:37:37.966Z,53.5
2016-08-02T00:37:49.204Z,53.3
2016-08-02T00:37:59.713Z,53.3
2016-08-02T00:38:10.969Z,53.3
2016-08-02T00:38:22.208Z,53.4
2016-08-02T00:38:33.447Z,53.3
2016-08-02T00:38:56.199Z,53.4
2016-08-02T00:39:07.434Z,53.2
2016-08-02T00:39:18.673Z,53.3
2016-08-02T00:39:29.918Z,53.4
2016-08-02T00:39:41.160Z,53.3
2016-08-02T00:39:52.402Z,53.4
2016-08-02T00:40:03.643Z,53.4
2016-08-02T00:40:14.884Z,53.3
2016-08-02T00:40:26.123Z,53.3
2016-08-02T00:40:37.362Z,53.3
2016-08-02T00:40:48.606Z,53.4
2016-08-02T00:40:59.844Z,53.3
2016-08-02T00:41:11.084Z,53.4
2016-08-02T00:41:22.329Z,53.3
2016-08-02T00:41:33.574Z,53.4
2016-08-02T00:41:44.817Z,53.3
2016-08-02T00:41:56.062Z,53.3
2016-08-02T00:42:07.304Z,53.3
2016-08-02T00:42:18.542Z,53.4
2016-08-02T00:42:29.061Z,53.4
2016-08-02T00:42:40.302Z,53.4
2016-08-02T00:42:51.544Z,53.3
2016-08-02T00:43:02.785Z,53.3
2016-08-02T00:43:14.024Z,53.4
2016-08-02T00:43:25.267Z,53.4
2016-08-02T00:43:36.504Z,53.4
2016-08-02T00:43:47.745Z,53.3
2016-08-02T00:43:58.991Z,53.4
2016-08-02T00:44:10.231Z,53.5
2016-08-02T00:44:21.470Z,53.3
2016-08-02T00:44:32.713Z,53.3
2016-08-02T00:44:43.960Z,53.3
2016-08-02T00:44:55.196Z,53.3
2016-08-02T00:45:06.439Z,53.3
2016-08-02T00:45:17.685Z,53.4
2016-08-02T00:45:28.925Z,53.3
2016-08-02T00:45:40.168Z,53.5
2016-08-02T00:45:51.410Z,53.3
2016-08-02T00:46:02.651Z,53.3
2016-08-02T00:46:13.893Z,53.4
2016-08-02T00:46:25.135Z,53.4
2016-08-02T00:46:36.374Z,53.4
2016-08-02T00:46:47.614Z,53.4
2016-08-02T00:46:58.862Z,53.3
2016-08-02T00:47:09.379Z,53.5
2016-08-02T00:47:19.156Z,53.4
2016-08-02T00:47:30.404Z,53.4
2016-08-02T00:47:40.916Z,53.5
2016-08-02T00:47:52.154Z,53.4
2016-08-02T00:48:01.940Z,53.5
2016-08-02T00:48:13.184Z,53.4
2016-08-02T00:48:23.698Z,53.4
2016-08-02T00:48:34.938Z,53.4
2016-08-02T00:48:46.180Z,53.4
2016-08-02T00:48:57.419Z,53.4
2016-08-02T00:49:08.660Z,53.2
2016-08-02T00:49:19.903Z,53.4
2016-08-02T00:49:31.144Z,53.4
2016-08-02T00:49:42.386Z,53.2
2016-08-02T00:49:53.638Z,53.4
2016-08-02T00:50:04.880Z,53.3
2016-08-02T00:50:16.121Z,53.4
2016-08-02T00:50:27.370Z,53.4
2016-08-02T00:50:37.877Z,53.4
2016-08-02T00:50:49.126Z,53.4
2016-08-02T00:51:00.367Z,53.4
2016-08-02T00:51:10.888Z,53.4
2016-08-02T00:51:22.156Z,53.3
2016-08-02T00:51:33.399Z,53.2
2016-08-02T00:51:44.640Z,53.4
2016-08-02T00:51:55.881Z,53.6
2016-08-02T00:52:07.126Z,53.4
2016-08-02T00:52:18.370Z,53.3
2016-08-02T00:52:29.615Z,53.3
2016-08-02T00:52:40.858Z,53.4
2016-08-02T00:52:52.104Z,53.3
2016-08-02T00:53:02.609Z,53.3
2016-08-02T00:53:13.119Z,53.3
2016-08-02T00:53:23.637Z,53.3
2016-08-02T00:53:34.879Z,53.3
2016-08-02T00:53:57.339Z,53.4
2016-08-02T00:54:07.849Z,53.4
2016-08-02T00:54:19.091Z,53.5
2016-08-02T00:54:30.333Z,53.4
2016-08-02T00:54:41.575Z,53.3
2016-08-02T00:54:52.813Z,53.3
2016-08-02T00:55:04.054Z,53.1
2016-08-02T00:55:15.297Z,53.5
2016-08-02T00:55:26.538Z,53.4
2016-08-02T00:55:37.777Z,53.2
2016-08-02T00:55:49.017Z,53.4
2016-08-02T00:55:59.528Z,53.3
2016-08-02T00:56:10.763Z,53.2
2016-08-02T00:56:21.277Z,53.4
2016-08-02T00:56:32.518Z,53.3
2016-08-02T00:56:43.765Z,53.4
2016-08-02T00:56:55.000Z,53.1
2016-08-02T00:57:06.255Z,53.3
2016-08-02T00:57:17.493Z,53.3
2016-08-02T00:57:28.732Z,53.4
2016-08-02T00:57:39.974Z,53.4
2016-08-02T00:57:51.221Z,53.3
2016-08-02T00:58:02.465Z,53.1
2016-08-02T00:58:13.707Z,53.3
2016-08-02T00:58:24.217Z,53.3
2016-08-02T00:58:35.459Z,53.2
2016-08-02T00:58:46.701Z,53.3
2016-08-02T00:58:57.208Z,53.1
2016-08-02T00:59:08.468Z,53.2
2016-08-02T00:59:19.705Z,53.4
2016-08-02T00:59:30.948Z,53.2
2016-08-02T00:59:42.189Z,53.1
2016-08-02T00:59:53.431Z,53.2
2016-08-02T01:00:04.669Z,53.4
2016-08-02T01:00:15.914Z,53.2
2016-08-02T01:00:27.161Z,53.3
2016-08-02T01:00:38.401Z,53.2
2016-08-02T01:00:49.643Z,53.2
2016-08-02T01:01:00.149Z,53.2
2016-08-02T01:01:11.391Z,53.2
2016-08-02T01:01:22.640Z,53.1
2016-08-02T01:01:33.149Z,53.1
2016-08-02T01:01:44.391Z,53.2
2016-08-02T01:01:55.650Z,53.1
2016-08-02T01:02:06.151Z,53.1
2016-08-02T01:02:17.394Z,53.2
2016-08-02T01:02:28.631Z,53.2
2016-08-02T01:02:39.874Z,53.1
2016-08-02T01:02:51.112Z,53.1
2016-08-02T01:03:02.357Z,53.1
2016-08-02T01:03:13.601Z,53.1
2016-08-02T01:03:24.838Z,53.1
2016-08-02T01:03:36.082Z,53.1
2016-08-02T01:03:47.329Z,53.1
2016-08-02T01:03:58.571Z,53.2
2016-08-02T01:04:09.086Z,53.4
2016-08-02T01:04:20.337Z,53.3
2016-08-02T01:04:31.583Z,53.1
2016-08-02T01:04:42.828Z,53.2
2016-08-02T01:04:53.343Z,53.1
2016-08-02T01:05:04.587Z,53.1
2016-08-02T01:05:15.832Z,53.3
2016-08-02T01:05:27.076Z,53.1
2016-08-02T01:05:38.319Z,53.2
2016-08-02T01:05:49.555Z,53.3
2016-08-02T01:06:00.798Z,53.2
2016-08-02T01:06:12.041Z,53.3
2016-08-02T01:06:23.285Z,53.1
2016-08-02T01:06:34.520Z,53.1
2016-08-02T01:06:45.762Z,53.1
2016-08-02T01:06:57.001Z,53.1
2016-08-02T01:07:07.512Z,53.2
2016-08-02T01:07:20.544Z,53.1
2016-08-02T01:07:31.784Z,53.3
2016-08-02T01:07:43.023Z,53.3
2016-08-02T01:07:53.532Z,53.1
2016-08-02T01:08:04.778Z,53.2
2016-08-02T01:08:14.564Z,53.2
2016-08-02T01:08:25.807Z,53.2
2016-08-02T01:08:37.047Z,53.2
2016-08-02T01:08:59.687Z,53.2
2016-08-02T01:09:10.936Z,53.2
2016-08-02T01:09:21.442Z,53.2
2016-08-02T01:09:32.687Z,53
2016-08-02T01:09:43.928Z,53.3
2016-08-02T01:09:54.443Z,53.3
2016-08-02T01:10:05.688Z,53.2
2016-08-02T01:10:16.198Z,53.4
2016-08-02T01:10:27.441Z,53.3
2016-08-02T01:10:38.686Z,53.2
2016-08-02T01:10:49.929Z,53.3
2016-08-02T01:11:01.170Z,53.3
2016-08-02T01:11:12.410Z,53.2
2016-08-02T01:11:22.930Z,53.3
2016-08-02T01:11:34.169Z,53.2
2016-08-02T01:11:45.409Z,53.3
2016-08-02T01:11:56.655Z,53.1
2016-08-02T01:12:07.900Z,53.1
2016-08-02T01:12:19.146Z,53.3
2016-08-02T01:12:30.387Z,53.2
2016-08-02T01:12:41.631Z,53.3
2016-08-02T01:12:52.875Z,53.2
2016-08-02T01:13:04.120Z,53.1
2016-08-02T01:13:15.357Z,53.1
2016-08-02T01:13:26.602Z,53.3
2016-08-02T01:13:37.845Z,53.4
2016-08-02T01:13:49.087Z,53
2016-08-02T01:14:00.330Z,53.2
2016-08-02T01:14:11.575Z,53
2016-08-02T01:14:22.813Z,53.1
2016-08-02T01:14:34.055Z,53
2016-08-02T01:14:45.298Z,53.2
2016-08-02T01:14:56.541Z,53.1
2016-08-02T01:15:06.326Z,53
2016-08-02T01:15:17.566Z,53.1
2016-08-02T01:15:28.811Z,53.1
2016-08-02T01:15:40.060Z,53.3
2016-08-02T01:15:51.293Z,53.1
2016-08-02T01:16:02.540Z,53.2
2016-08-02T01:16:13.788Z,53.1
2016-08-02T01:16:25.031Z,53.1
2016-08-02T01:16:36.273Z,53
2016-08-02T01:16:47.516Z,53
2016-08-02T01:16:58.757Z,53
2016-08-02T01:17:09.997Z,53.2
2016-08-02T01:17:21.235Z,53.2
2016-08-02T01:17:32.477Z,53
2016-08-02T01:17:42.984Z,53.1
2016-08-02T01:17:54.229Z,53
2016-08-02T01:18:05.470Z,53.1
2016-08-02T01:18:16.721Z,53.2
2016-08-02T01:18:27.228Z,53.1
2016-08-02T01:18:38.472Z,53
2016-08-02T01:18:49.717Z,53.1
2016-08-02T01:19:00.229Z,53.1
2016-08-02T01:19:11.466Z,53.1
2016-08-02T01:19:22.707Z,53.1
2016-08-02T01:19:35.012Z,53.2
2016-08-02T01:19:46.261Z,53
2016-08-02T01:19:56.777Z,53.2
2016-08-02T01:20:08.022Z,53.2
2016-08-02T01:20:19.266Z,53.2
2016-08-02T01:20:30.505Z,53.1
2016-08-02T01:20:41.748Z,53.2
2016-08-02T01:20:52.994Z,53
2016-08-02T01:21:04.242Z,53.1
2016-08-02T01:21:14.749Z,53.2
2016-08-02T01:21:25.990Z,53.1
2016-08-02T01:21:36.501Z,53.3
2016-08-02T01:21:47.741Z,53.2
2016-08-02T01:21:58.253Z,53.2
2016-08-02T01:22:09.502Z,53.1
2016-08-02T01:22:20.015Z,53.2
2016-08-02T01:22:31.254Z,53.1
2016-08-02T01:22:42.495Z,53.2
2016-08-02T01:22:53.737Z,53.2
2016-08-02T01:23:04.979Z,53.1
2016-08-02T01:23:16.224Z,53.2
2016-08-02T01:23:27.472Z,53.1
2016-08-02T01:23:38.715Z,53.1
2016-08-02T01:24:01.910Z,53.3
2016-08-02T01:24:13.150Z,53.1
2016-08-02T01:24:24.389Z,53.2
2016-08-02T01:24:35.635Z,53.1
2016-08-02T01:24:46.876Z,53.1
2016-08-02T01:24:58.129Z,53.2
2016-08-02T01:25:09.377Z,53.1
2016-08-02T01:25:20.618Z,53
2016-08-02T01:25:31.858Z,53.3
2016-08-02T01:25:43.096Z,53.2
2016-08-02T01:25:54.339Z,53.2
2016-08-02T01:26:05.576Z,53.2
2016-08-02T01:26:16.818Z,53.2
2016-08-02T01:26:28.062Z,53.2
2016-08-02T01:26:39.308Z,53.2
2016-08-02T01:26:50.546Z,53.2
2016-08-02T01:27:01.053Z,53.2
2016-08-02T01:27:12.300Z,53.2
2016-08-02T01:27:23.550Z,53.1
2016-08-02T01:27:34.786Z,53.1
2016-08-02T01:27:46.031Z,53
2016-08-02T01:27:57.270Z,53.2
2016-08-02T01:28:08.509Z,53.1
2016-08-02T01:28:19.753Z,53
2016-08-02T01:28:30.269Z,53.2
2016-08-02T01:28:41.509Z,53.2
2016-08-02T01:28:52.753Z,53.2
2016-08-02T01:29:04.002Z,53.1
2016-08-02T01:29:15.246Z,53.1
2016-08-02T01:29:26.493Z,53.1
2016-08-02T01:29:37.731Z,53.1
2016-08-02T01:29:48.972Z,53.2
2016-08-02T01:30:00.216Z,53.1
2016-08-02T01:30:11.455Z,53.1
2016-08-02T01:30:21.966Z,53.2
2016-08-02T01:30:32.478Z,53.1
2016-08-02T01:30:43.727Z,53.2
2016-08-02T01:30:54.229Z,52.9
2016-08-02T01:31:05.477Z,53.1
2016-08-02T01:31:16.720Z,53.1
2016-08-02T01:31:27.957Z,53.1
2016-08-02T01:31:39.198Z,53.1
2016-08-02T01:31:50.444Z,52.8
2016-08-02T01:32:00.961Z,53.2
2016-08-02T01:32:12.201Z,53.1
2016-08-02T01:32:22.709Z,52.9
2016-08-02T01:32:33.954Z,52.9
2016-08-02T01:32:45.194Z,52.9
2016-08-02T01:32:55.709Z,52.9
2016-08-02T01:33:06.951Z,52.8
2016-08-02T01:33:17.464Z,52.8
2016-08-02T01:33:28.706Z,52.8
2016-08-02T01:33:39.948Z,53.2
2016-08-02T01:33:51.193Z,53.1
2016-08-02T01:34:02.436Z,53
2016-08-02T01:34:12.946Z,52.7
2016-08-02T01:34:24.191Z,53.1
2016-08-02T01:34:35.435Z,53
2016-08-02T01:34:46.677Z,53.3
2016-08-02T01:34:57.185Z,52.8
2016-08-02T01:35:08.423Z,53
2016-08-02T01:35:19.663Z,53.1
2016-08-02T01:35:29.453Z,52.8
2016-08-02T01:35:40.696Z,53.1
2016-08-02T01:35:51.947Z,52.9
2016-08-02T01:36:03.193Z,53.1
2016-08-02T01:36:14.433Z,53.2
2016-08-02T01:36:25.677Z,53
2016-08-02T01:36:36.196Z,53
2016-08-02T01:36:47.443Z,53.2
2016-08-02T01:36:58.691Z,52.9
2016-08-02T01:37:09.930Z,52.7
2016-08-02T01:37:21.171Z,52.7
2016-08-02T01:37:31.685Z,52.9
2016-08-02T01:37:42.925Z,53.2
2016-08-02T01:37:54.166Z,53.1
2016-08-02T01:38:05.406Z,52.7
2016-08-02T01:38:16.648Z,52.7
2016-08-02T01:38:27.888Z,52.7
2016-08-02T01:38:39.123Z,53.2
2016-08-02T01:39:02.051Z,52.7
2016-08-02T01:39:13.296Z,52.8
2016-08-02T01:39:24.541Z,52.9
2016-08-02T01:39:35.781Z,53.2
2016-08-02T01:39:47.023Z,52.9
2016-08-02T01:39:58.264Z,52.8
2016-08-02T01:40:09.507Z,52.8
2016-08-02T01:40:20.745Z,52.8
2016-08-02T01:40:31.991Z,52.9
2016-08-02T01:40:42.503Z,52.8
2016-08-02T01:40:53.745Z,52.9
2016-08-02T01:41:04.988Z,53
2016-08-02T01:41:15.501Z,52.9
2016-08-02T01:41:26.009Z,53
2016-08-02T01:41:37.251Z,52.8
2016-08-02T01:41:48.496Z,52.9
2016-08-02T01:41:59.735Z,52.8
2016-08-02T01:42:10.979Z,52.8
2016-08-02T01:42:22.217Z,53
2016-08-02T01:42:33.457Z,52.9
2016-08-02T01:42:43.968Z,53
2016-08-02T01:42:55.214Z,52.8
2016-08-02T01:43:06.462Z,52.8
2016-08-02T01:43:17.702Z,52.8
2016-08-02T01:43:28.941Z,52.9
2016-08-02T01:43:40.184Z,52.9
2016-08-02T01:43:50.693Z,53
2016-08-02T01:44:01.934Z,52.9
2016-08-02T01:44:13.177Z,52.8
2016-08-02T01:44:24.413Z,52.9
2016-08-02T01:44:35.657Z,52.9
2016-08-02T01:44:46.902Z,52.8
2016-08-02T01:44:58.143Z,52.8
2016-08-02T01:45:07.926Z,52.9
2016-08-02T01:45:19.167Z,52.9
2016-08-02T01:45:30.409Z,52.9
2016-08-02T01:45:41.649Z,52.7
2016-08-02T01:45:52.152Z,52.7
2016-08-02T01:46:03.397Z,52.8
2016-08-02T01:46:14.638Z,52.8
2016-08-02T01:46:25.878Z,52.8
2016-08-02T01:46:37.123Z,52.9
2016-08-02T01:46:48.359Z,52.9
2016-08-02T01:46:59.605Z,52.8
2016-08-02T01:47:10.855Z,52.8
2016-08-02T01:47:22.099Z,52.9
2016-08-02T01:47:33.341Z,52.8
2016-08-02T01:47:43.862Z,52.6
2016-08-02T01:47:55.098Z,52.7
2016-08-02T01:48:06.341Z,52.9
2016-08-02T01:48:17.579Z,52.9
2016-08-02T01:48:28.823Z,52.8
2016-08-02T01:48:40.063Z,52.8
2016-08-02T01:48:51.311Z,52.7
2016-08-02T01:49:02.553Z,52.8
2016-08-02T01:49:13.793Z,52.8
2016-08-02T01:49:25.035Z,52.7
2016-08-02T01:49:36.281Z,52.8
2016-08-02T01:49:47.518Z,52.7
2016-08-02T01:49:58.757Z,52.8
2016-08-02T01:50:09.998Z,52.7
2016-08-02T01:50:21.240Z,52.7
2016-08-02T01:50:31.745Z,52.9
2016-08-02T01:50:42.985Z,52.9
2016-08-02T01:50:54.230Z,52.8
2016-08-02T01:51:05.474Z,52.7
2016-08-02T01:51:16.711Z,52.9
2016-08-02T01:51:27.951Z,52.9
2016-08-02T01:51:38.467Z,52.9
2016-08-02T01:51:49.711Z,52.8
2016-08-02T01:52:00.227Z,52.8
2016-08-02T01:52:11.468Z,52.9
2016-08-02T01:52:21.977Z,52.7
2016-08-02T01:52:33.216Z,52.9
2016-08-02T01:52:44.457Z,52.7
2016-08-02T01:52:55.707Z,52.9
2016-08-02T01:53:06.214Z,52.8
2016-08-02T01:53:17.455Z,52.9
2016-08-02T01:53:28.707Z,52.8
2016-08-02T01:53:39.943Z,52.9
2016-08-02T01:54:01.867Z,52.7
2016-08-02T01:54:13.108Z,52.8
2016-08-02T01:54:24.353Z,52.9
2016-08-02T01:54:34.855Z,53
2016-08-02T01:54:45.367Z,52.9
2016-08-02T01:54:56.604Z,52.9
2016-08-02T01:55:07.847Z,52.9
2016-08-02T01:55:19.086Z,52.8
2016-08-02T01:55:29.599Z,52.9
2016-08-02T01:55:40.837Z,52.9
2016-08-02T01:55:52.087Z,52.8
2016-08-02T01:56:03.328Z,52.7
2016-08-02T01:56:14.564Z,52.8
2016-08-02T01:56:25.808Z,52.8
2016-08-02T01:56:37.051Z,52.8
2016-08-02T01:56:48.291Z,52.8
2016-08-02T01:56:59.546Z,52.9
2016-08-02T01:57:10.790Z,52.9
2016-08-02T01:57:22.036Z,52.9
2016-08-02T01:57:33.278Z,52.8
2016-08-02T01:57:44.526Z,52.7
2016-08-02T01:57:55.766Z,52.7
2016-08-02T01:58:07.008Z,52.8
2016-08-02T01:58:18.253Z,52.8
2016-08-02T01:58:28.765Z,52.8
2016-08-02T01:58:41.803Z,52.8
2016-08-02T01:58:53.039Z,53
2016-08-02T01:59:04.283Z,53
2016-08-02T01:59:15.529Z,52.9
2016-08-02T01:59:26.765Z,52.9
2016-08-02T01:59:37.279Z,52.9
2016-08-02T01:59:47.803Z,52.9
2016-08-02T01:59:59.046Z,52.9
2016-08-02T02:00:10.292Z,52.7
2016-08-02T02:00:21.535Z,52.8
2016-08-02T02:00:32.046Z,52.9
2016-08-02T02:00:42.559Z,52.8
2016-08-02T02:00:53.803Z,52.9
2016-08-02T02:01:05.045Z,52.9
2016-08-02T02:01:16.287Z,53
2016-08-02T02:01:27.542Z,52.6
2016-08-02T02:01:38.057Z,53
2016-08-02T02:01:49.299Z,53
2016-08-02T02:02:00.534Z,52.5
2016-08-02T02:02:11.776Z,52.7
2016-08-02T02:02:23.025Z,52.5
2016-08-02T02:02:34.267Z,52.7
2016-08-02T02:02:45.509Z,53
2016-08-02T02:02:56.748Z,53
2016-08-02T02:03:07.990Z,52.6
2016-08-02T02:03:19.242Z,52.7
2016-08-02T02:03:30.483Z,52.5
2016-08-02T02:03:41.719Z,52.7
2016-08-02T02:03:52.966Z,52.7
2016-08-02T02:04:04.208Z,52.7
2016-08-02T02:04:15.450Z,52.7
2016-08-02T02:04:25.978Z,52.4
2016-08-02T02:04:37.214Z,52.7
2016-08-02T02:04:48.451Z,52.6
2016-08-02T02:04:59.692Z,52.6
2016-08-02T02:05:10.938Z,52.6
2016-08-02T02:05:22.183Z,52.7
2016-08-02T02:05:33.422Z,52.7
2016-08-02T02:05:44.661Z,52.7
2016-08-02T02:05:55.902Z,52.7
2016-08-02T02:06:07.148Z,52.7
2016-08-02T02:06:18.385Z,52.5
2016-08-02T02:06:29.624Z,52.6
2016-08-02T02:06:40.867Z,52.6
2016-08-02T02:06:52.111Z,52.6
2016-08-02T02:07:02.622Z,52.6
2016-08-02T02:07:13.872Z,52.6
2016-08-02T02:07:25.114Z,52.5
2016-08-02T02:07:36.360Z,52.6
2016-08-02T02:07:47.601Z,52.6
2016-08-02T02:07:58.843Z,52.8
2016-08-02T02:08:10.087Z,52.8
2016-08-02T02:08:21.331Z,52.8
2016-08-02T02:08:31.842Z,52.6
2016-08-02T02:08:43.082Z,52.6
2016-08-02T02:09:06.280Z,52.8
2016-08-02T02:09:17.533Z,52.6
2016-08-02T02:09:28.773Z,52.8
2016-08-02T02:09:40.015Z,52.8
2016-08-02T02:09:51.258Z,52.8
2016-08-02T02:10:02.503Z,52.8
2016-08-02T02:10:13.750Z,52.5
2016-08-02T02:10:24.990Z,52.8
2016-08-02T02:10:36.229Z,52.8
2016-08-02T02:10:47.474Z,52.8
2016-08-02T02:10:58.710Z,52.7
2016-08-02T02:11:09.946Z,52.7
2016-08-02T02:11:21.194Z,52.7
2016-08-02T02:11:33.500Z,52.7
2016-08-02T02:11:44.745Z,52.7
2016-08-02T02:11:55.277Z,52.5
2016-08-02T02:12:06.522Z,52.5
2016-08-02T02:12:17.761Z,52.7
2016-08-02T02:12:29.001Z,52.8
2016-08-02T02:12:40.245Z,52.7
2016-08-02T02:12:51.486Z,52.6
2016-08-02T02:13:02.723Z,52.7
2016-08-02T02:13:13.970Z,52.7
2016-08-02T02:13:25.214Z,52.7
2016-08-02T02:13:36.459Z,52.7
2016-08-02T02:13:47.697Z,52.6
2016-08-02T02:13:58.935Z,52.6
2016-08-02T02:14:10.179Z,52.9
2016-08-02T02:14:21.422Z,52.7
2016-08-02T02:14:32.664Z,52.6
2016-08-02T02:14:43.905Z,52.7
2016-08-02T02:14:55.141Z,52.9
2016-08-02T02:15:06.384Z,52.3
2016-08-02T02:15:17.634Z,52.6
2016-08-02T02:15:28.868Z,52.9
2016-08-02T02:15:40.110Z,52.6
2016-08-02T02:15:51.348Z,52.9
2016-08-02T02:16:02.587Z,52.5
2016-08-02T02:16:13.829Z,52.8
2016-08-02T02:16:25.071Z,52.5
2016-08-02T02:16:36.315Z,52.6
2016-08-02T02:16:47.553Z,52.7
2016-08-02T02:16:58.795Z,52.9
2016-08-02T02:17:10.035Z,52.9
2016-08-02T02:17:21.283Z,52.7
2016-08-02T02:17:32.523Z,52.8
2016-08-02T02:17:43.766Z,52.8
2016-08-02T02:17:55.009Z,52.9
2016-08-02T02:18:06.253Z,52.7
2016-08-02T02:18:16.769Z,52.5
2016-08-02T02:18:28.009Z,52.7
2016-08-02T02:18:39.253Z,52.7
2016-08-02T02:18:50.492Z,52.7
2016-08-02T02:19:01.733Z,52.6
2016-08-02T02:19:12.978Z,52.7
2016-08-02T02:19:24.221Z,52.7
2016-08-02T02:19:35.463Z,52.5
2016-08-02T02:19:46.711Z,52.7
2016-08-02T02:19:57.953Z,52.5
2016-08-02T02:20:09.202Z,52.5
2016-08-02T02:20:19.708Z,52.4
2016-08-02T02:20:30.949Z,52.5
2016-08-02T02:20:42.193Z,52.5
2016-08-02T02:20:53.430Z,52.5
2016-08-02T02:21:03.207Z,52.5
2016-08-02T02:21:14.449Z,52.3
2016-08-02T02:21:25.693Z,52.3
2016-08-02T02:21:36.935Z,52.4
2016-08-02T02:21:48.175Z,52.5
2016-08-02T02:21:59.412Z,52.4
2016-08-02T02:22:10.659Z,52.4
2016-08-02T02:22:21.904Z,52.3
2016-08-02T02:22:33.145Z,52.3
2016-08-02T02:22:44.385Z,52.4
2016-08-02T02:22:55.623Z,52.3
2016-08-02T02:23:06.863Z,52.4
2016-08-02T02:23:18.101Z,52.6
2016-08-02T02:23:29.341Z,52.3
2016-08-02T02:23:39.855Z,52.4
2016-08-02T02:23:51.099Z,52.3
2016-08-02T02:24:13.569Z,52.4
2016-08-02T02:24:24.811Z,52.5
2016-08-02T02:24:35.322Z,52.5
2016-08-02T02:24:46.569Z,52.5
2016-08-02T02:24:57.811Z,52.8
2016-08-02T02:25:09.049Z,52.5
2016-08-02T02:25:19.566Z,52.4
2016-08-02T02:25:30.075Z,52.7
2016-08-02T02:25:41.315Z,52.5
2016-08-02T02:25:52.554Z,52.4
2016-08-02T02:26:03.798Z,52.5
2016-08-02T02:26:15.040Z,52.8
2016-08-02T02:26:26.281Z,52.5
2016-08-02T02:26:36.797Z,52.7
2016-08-02T02:26:48.040Z,52.6
2016-08-02T02:26:59.281Z,52.4
2016-08-02T02:27:10.521Z,52.3
2016-08-02T02:27:21.773Z,52.4
2016-08-02T02:27:33.018Z,52.4
2016-08-02T02:27:44.272Z,52.6
2016-08-02T02:27:55.520Z,52.4
2016-08-02T02:28:06.760Z,52.4
2016-08-02T02:28:17.995Z,52.3
2016-08-02T02:28:29.238Z,52.8
2016-08-02T02:28:40.479Z,52.4
2016-08-02T02:28:51.722Z,52.4
2016-08-02T02:29:02.236Z,52.3
2016-08-02T02:29:13.485Z,52.4
2016-08-02T02:29:24.722Z,52.3
2016-08-02T02:29:35.965Z,52.4
2016-08-02T02:29:47.218Z,52.4
2016-08-02T02:29:58.455Z,52.4
2016-08-02T02:30:09.708Z,52.4
2016-08-02T02:30:20.947Z,52.3
2016-08-02T02:30:31.458Z,52.3
2016-08-02T02:30:42.701Z,52.6